createdAt,value
2018-01-30T00:00:11.822Z,88.30
2018-01-30T00:02:41.274Z,88.20
2018-01-30T00:05:11.340Z,88.70
2018-01-30T00:07:41.001Z,88.60
2018-01-30T00:10:11.053Z,89.00
2018-01-30T00:12:40.378Z,89.00
2018-01-30T00:15:09.783Z,89.10
2018-01-30T00:17:39.704Z,89.00
2018-01-30T00:20:08.968Z,89.10
2018-01-30T00:22:38.315Z,89.10
2018-01-30T00:25:07.611Z,89.90
2018-01-30T00:27:36.900Z,89.30
2018-01-30T00:30:06.250Z,89.80
2018-01-30T00:32:35.685Z,89.60
2018-01-30T00:35:05.190Z,89.60
2018-01-30T00:37:34.482Z,89.60
2018-01-30T00:40:03.736Z,89.80
2018-01-30T00:42:33.038Z,89.90
2018-01-30T00:45:02.414Z,90.00
2018-01-30T00:47:31.696Z,90.00
2018-01-30T00:50:01.100Z,89.70
2018-01-30T00:52:30.382Z,90.00
2018-01-30T00:54:59.683Z,90.10
2018-01-30T00:57:29.005Z,90.00
2018-01-30T00:59:59.049Z,90.40
2018-01-30T01:02:28.000Z,90.40
2018-01-30T01:04:57.411Z,90.40
2018-01-30T01:07:26.690Z,90.60
2018-01-30T01:09:56.257Z,90.50
2018-01-30T01:12:26.387Z,90.80
2018-01-30T01:14:56.151Z,90.80
2018-01-30T01:17:25.478Z,90.70
2018-01-30T01:19:54.750Z,91.80
2018-01-30T01:22:24.062Z,91.60
2018-01-30T01:24:53.370Z,91.90
2018-01-30T01:27:22.594Z,91.60
2018-01-30T01:29:52.863Z,91.90
2018-01-30T01:32:21.654Z,91.80
2018-01-30T01:34:51.054Z,91.70
2018-01-30T01:37:20.140Z,91.80
2018-01-30T01:39:49.588Z,91.40
2018-01-30T01:42:18.885Z,91.50
2018-01-30T01:44:48.162Z,91.50
2018-01-30T01:47:17.429Z,92.40
2018-01-30T01:49:47.491Z,93.40
2018-01-30T01:52:16.814Z,93.40
2018-01-30T01:54:46.185Z,93.20
2018-01-30T01:57:15.462Z,93.60
2018-01-30T01:59:45.510Z,93.60
2018-01-30T02:02:14.760Z,93.60
2018-01-30T02:04:44.820Z,93.60
2018-01-30T02:07:14.083Z,93.60
2018-01-30T02:09:44.103Z,93.60
2018-01-30T02:12:14.174Z,93.30
2018-01-30T02:14:43.470Z,93.30
2018-01-30T02:17:12.753Z,93.00
2018-01-30T02:19:42.021Z,93.30
2018-01-30T02:22:12.456Z,93.40
2018-01-30T02:24:42.514Z,93.20
2018-01-30T02:27:11.823Z,93.20
2018-01-30T02:29:41.114Z,93.00
2018-01-30T02:32:10.388Z,93.10
2018-01-30T02:34:39.802Z,93.00
2018-01-30T02:37:09.092Z,93.90
2018-01-30T02:39:38.356Z,94.10
2018-01-30T02:42:07.772Z,94.10
2018-01-30T02:44:37.826Z,93.70
2018-01-30T02:47:07.316Z,93.70
2018-01-30T02:49:36.586Z,93.90
2018-01-30T02:52:07.419Z,93.80
2018-01-30T02:54:36.690Z,93.70
2018-01-30T02:57:06.289Z,93.80
2018-01-30T02:59:35.316Z,93.80
2018-01-30T03:02:04.585Z,94.10
2018-01-30T03:04:33.840Z,94.10
2018-01-30T03:07:03.877Z,94.10
2018-01-30T03:09:33.132Z,94.10
2018-01-30T03:12:02.470Z,94.20
2018-01-30T03:14:31.880Z,94.40
2018-01-30T03:17:01.168Z,94.40
2018-01-30T03:19:30.962Z,94.10
2018-01-30T03:22:00.232Z,94.10
2018-01-30T03:24:29.496Z,93.90
2018-01-30T03:26:59.028Z,93.80
2018-01-30T03:29:28.300Z,93.90
2018-01-30T03:31:57.592Z,93.80
2018-01-30T03:34:27.643Z,93.80
2018-01-30T03:36:56.906Z,93.80
2018-01-30T03:39:26.942Z,93.60
2018-01-30T03:41:56.234Z,93.60
2018-01-30T03:44:26.267Z,93.50
2018-01-30T03:46:56.472Z,93.50
2018-01-30T03:49:26.562Z,93.40
2018-01-30T03:51:56.406Z,93.30
2018-01-30T03:54:26.432Z,93.40
2018-01-30T03:56:56.646Z,93.40
2018-01-30T03:59:26.672Z,93.30
2018-01-30T04:01:56.546Z,93.30
2018-01-30T04:04:25.800Z,93.20
2018-01-30T04:06:55.317Z,93.20
2018-01-30T04:09:24.594Z,93.30
2018-01-30T04:11:54.369Z,93.20
2018-01-30T04:14:23.646Z,93.20
2018-01-30T04:16:52.919Z,93.10
2018-01-30T04:19:22.214Z,93.30
2018-01-30T04:21:51.480Z,93.30
2018-01-30T04:24:21.508Z,93.20
2018-01-30T04:26:51.591Z,93.30
2018-01-30T04:29:20.872Z,93.30
2018-01-30T04:31:50.162Z,93.30
2018-01-30T04:34:19.433Z,93.80
2018-01-30T04:36:49.509Z,93.40
2018-01-30T04:39:18.797Z,93.40
2018-01-30T04:41:48.079Z,93.40
2018-01-30T04:44:17.400Z,93.60
2018-01-30T04:46:46.747Z,93.60
2018-01-30T04:49:17.206Z,93.60
2018-01-30T04:51:46.528Z,93.60
2018-01-30T04:54:15.935Z,93.60
2018-01-30T04:56:44.799Z,93.60
2018-01-30T04:59:14.211Z,93.60
2018-01-30T05:01:43.638Z,93.50
2018-01-30T05:04:12.904Z,93.40
2018-01-30T05:06:42.172Z,93.60
2018-01-30T05:09:12.379Z,93.50
2018-01-30T05:11:41.653Z,93.50
2018-01-30T05:14:11.749Z,93.50
2018-01-30T05:16:41.030Z,93.50
2018-01-30T05:19:11.058Z,93.70
2018-01-30T05:21:40.338Z,93.70
2018-01-30T05:24:10.382Z,93.80
2018-01-30T05:26:39.649Z,93.80
2018-01-30T05:29:10.026Z,93.50
2018-01-30T05:31:39.441Z,93.50
2018-01-30T05:34:08.760Z,93.70
2018-01-30T05:36:38.016Z,93.60
2018-01-30T05:39:07.352Z,93.60
2018-01-30T05:41:36.633Z,93.60
2018-01-30T05:44:05.953Z,93.50
2018-01-30T05:46:35.565Z,93.40
2018-01-30T05:49:04.845Z,93.30
2018-01-30T05:51:34.127Z,93.40
2018-01-30T05:54:03.412Z,93.50
2018-01-30T05:56:33.550Z,93.80
2018-01-30T05:59:02.824Z,93.80
2018-01-30T06:01:32.857Z,94.00
2018-01-30T06:04:02.118Z,94.00
2018-01-30T06:06:31.399Z,93.70
2018-01-30T06:09:00.816Z,93.50
2018-01-30T06:11:30.293Z,93.50
2018-01-30T06:13:59.711Z,93.50
2018-01-30T06:16:28.964Z,93.80
2018-01-30T06:18:58.538Z,94.00
2018-01-30T06:21:27.876Z,94.00
2018-01-30T06:23:57.170Z,94.00
2018-01-30T06:26:27.214Z,93.80
2018-01-30T06:28:56.740Z,93.80
2018-01-30T06:31:26.013Z,93.80
2018-01-30T06:33:55.281Z,94.00
2018-01-30T06:36:25.346Z,93.80
2018-01-30T06:38:54.615Z,93.80
2018-01-30T06:41:24.138Z,93.80
2018-01-30T06:43:53.440Z,93.90
2018-01-30T06:46:22.856Z,94.00
2018-01-30T06:48:52.136Z,94.10
2018-01-30T06:51:21.548Z,93.90
2018-01-30T06:53:50.822Z,93.80
2018-01-30T06:56:21.166Z,93.80
2018-01-30T06:58:50.427Z,93.80
2018-01-30T07:01:19.839Z,93.80
2018-01-30T07:03:50.187Z,93.90
2018-01-30T07:06:19.461Z,93.90
2018-01-30T07:08:49.519Z,93.90
2018-01-30T07:11:18.854Z,93.90
2018-01-30T07:13:48.122Z,93.90
2018-01-30T07:16:17.400Z,94.10
2018-01-30T07:18:47.451Z,93.80
2018-01-30T07:21:16.736Z,93.80
2018-01-30T07:23:46.037Z,93.80
2018-01-30T07:26:15.326Z,93.80
2018-01-30T07:28:44.599Z,93.70
2018-01-30T07:31:14.743Z,93.90
2018-01-30T07:33:44.230Z,93.90
2018-01-30T07:36:14.312Z,93.80
2018-01-30T07:38:43.600Z,93.80
2018-01-30T07:41:12.888Z,93.80
2018-01-30T07:43:42.173Z,93.80
2018-01-30T07:46:11.450Z,93.60
2018-01-30T07:48:41.564Z,93.50
2018-01-30T07:51:10.941Z,93.50
2018-01-30T07:53:40.642Z,93.50
2018-01-30T07:56:09.920Z,93.40
2018-01-30T07:58:39.180Z,93.70
2018-01-30T08:01:09.220Z,93.00
2018-01-30T08:03:38.493Z,93.00
2018-01-30T08:06:07.782Z,93.00
2018-01-30T08:08:37.041Z,92.90
2018-01-30T08:11:06.320Z,92.90
2018-01-30T08:13:36.404Z,92.40
2018-01-30T08:16:05.961Z,91.30
2018-01-30T08:18:35.629Z,91.30
2018-01-30T08:21:05.284Z,89.00
2018-01-30T08:23:34.794Z,86.00
2018-01-30T08:26:04.091Z,83.40
2018-01-30T08:28:33.384Z,82.40
2018-01-30T08:31:02.666Z,78.60
2018-01-30T08:33:32.746Z,74.90
2018-01-30T08:36:02.030Z,74.80
2018-01-30T08:38:31.374Z,73.90
2018-01-30T08:41:01.538Z,66.60
2018-01-30T08:43:30.824Z,66.50
2018-01-30T08:46:00.253Z,66.70
2018-01-30T08:48:29.538Z,65.00
2018-01-30T08:50:59.044Z,62.70
2018-01-30T08:53:28.508Z,60.80
2018-01-30T08:55:58.568Z,55.80
2018-01-30T08:58:27.973Z,55.80
2018-01-30T09:00:57.244Z,54.50
2018-01-30T09:03:27.332Z,50.90
2018-01-30T09:05:56.704Z,50.70
2018-01-30T09:08:26.201Z,50.10
2018-01-30T09:10:55.478Z,48.80
2018-01-30T09:13:25.258Z,44.40
2018-01-30T09:15:54.524Z,41.30
2018-01-30T09:18:24.077Z,39.00
2018-01-30T09:20:54.215Z,39.60
2018-01-30T09:23:24.292Z,36.40
2018-01-30T09:25:53.748Z,36.20
2018-01-30T09:28:23.347Z,36.50
2018-01-30T09:30:53.743Z,34.50
2018-01-30T09:33:23.014Z,34.40
2018-01-30T09:35:52.397Z,31.50
2018-01-30T09:38:21.798Z,31.50
2018-01-30T09:40:51.572Z,30.50
2018-01-30T09:43:21.840Z,30.00
2018-01-30T09:45:51.127Z,30.00
2018-01-30T09:48:20.793Z,29.60
2018-01-30T09:50:50.178Z,29.80
2018-01-30T09:53:19.622Z,29.50
2018-01-30T09:55:49.666Z,28.80
2018-01-30T09:58:19.109Z,28.80
2018-01-30T10:00:48.135Z,28.90
2018-01-30T10:03:18.612Z,33.10
2018-01-30T10:05:47.842Z,33.00
2018-01-30T10:08:17.574Z,35.80
2018-01-30T10:10:47.843Z,40.70
2018-01-30T10:13:17.308Z,40.40
2018-01-30T10:15:47.362Z,44.80
2018-01-30T10:18:16.662Z,44.70
2018-01-30T10:20:45.960Z,46.60
2018-01-30T10:23:15.433Z,48.60
2018-01-30T10:25:45.530Z,50.40
2018-01-30T10:28:14.807Z,50.40
2018-01-30T10:30:44.182Z,51.00
2018-01-30T10:33:13.484Z,51.60
2018-01-30T10:35:42.827Z,52.80
2018-01-30T10:38:12.385Z,53.70
2018-01-30T10:40:41.692Z,54.20
2018-01-30T10:43:10.964Z,54.50
2018-01-30T10:45:41.022Z,55.70
2018-01-30T10:48:10.335Z,55.70
2018-01-30T10:50:39.631Z,56.30
2018-01-30T10:53:08.983Z,56.20
2018-01-30T10:55:39.032Z,56.60
2018-01-30T10:58:08.298Z,56.50
2018-01-30T11:00:38.351Z,57.30
2018-01-30T11:03:07.621Z,57.30
2018-01-30T11:05:37.978Z,56.70
2018-01-30T11:08:07.240Z,56.60
2018-01-30T11:10:37.289Z,56.90
2018-01-30T11:13:06.827Z,56.90
2018-01-30T11:15:36.100Z,57.80
2018-01-30T11:18:05.421Z,57.90
2018-01-30T11:20:35.728Z,58.10
2018-01-30T11:23:05.148Z,58.10
2018-01-30T11:25:34.498Z,58.10
2018-01-30T11:28:04.557Z,58.80
2018-01-30T11:30:33.603Z,58.70
2018-01-30T11:33:03.672Z,58.70
2018-01-30T11:35:32.962Z,58.60
2018-01-30T11:38:02.292Z,58.80
2018-01-30T11:40:31.583Z,58.90
2018-01-30T11:43:00.944Z,58.90
2018-01-30T11:45:31.041Z,58.90
2018-01-30T11:48:00.415Z,58.90
2018-01-30T11:50:29.730Z,58.90
2018-01-30T11:52:59.377Z,58.80
2018-01-30T11:55:29.428Z,58.60
2018-01-30T11:57:58.843Z,58.60
2018-01-30T12:00:28.212Z,58.50
2018-01-30T12:02:58.037Z,58.30
2018-01-30T12:05:27.315Z,58.20
2018-01-30T12:07:57.494Z,58.90
2018-01-30T12:10:27.187Z,58.90
2018-01-30T12:12:56.671Z,59.30
2018-01-30T12:15:26.112Z,59.50
2018-01-30T12:17:55.390Z,60.00
2018-01-30T12:20:24.661Z,60.20
2018-01-30T12:22:54.017Z,60.30
2018-01-30T12:25:23.290Z,60.30
2018-01-30T12:27:52.795Z,60.60
2018-01-30T12:30:22.135Z,61.90
2018-01-30T12:32:51.410Z,62.30
2018-01-30T12:35:20.695Z,62.60
2018-01-30T12:37:50.002Z,62.60
2018-01-30T12:40:19.374Z,63.00
2018-01-30T12:42:49.396Z,63.00
2018-01-30T12:45:18.756Z,63.00
2018-01-30T12:47:48.012Z,63.20
2018-01-30T12:50:17.296Z,63.10
2018-01-30T12:52:46.556Z,63.00
2018-01-30T12:55:15.825Z,63.10
2018-01-30T12:57:45.103Z,62.30
2018-01-30T13:00:15.323Z,62.90
2018-01-30T13:02:44.601Z,62.90
2018-01-30T13:05:15.197Z,63.20
2018-01-30T13:07:44.870Z,63.10
2018-01-30T13:10:14.303Z,63.30
2018-01-30T13:12:43.617Z,63.50
2018-01-30T13:15:12.996Z,63.10
2018-01-30T13:17:42.721Z,62.00
2018-01-30T13:20:12.001Z,61.90
2018-01-30T13:22:41.291Z,62.10
2018-01-30T13:25:10.557Z,62.10
2018-01-30T13:27:40.624Z,61.90
2018-01-30T13:30:09.915Z,61.80
2018-01-30T13:32:39.181Z,61.60
2018-01-30T13:35:09.209Z,60.90
2018-01-30T13:37:39.379Z,60.90
2018-01-30T13:40:08.641Z,60.90
2018-01-30T13:42:37.722Z,60.90
2018-01-30T13:45:07.772Z,59.90
2018-01-30T13:47:37.116Z,59.90
2018-01-30T13:50:06.482Z,59.30
2018-01-30T13:52:35.885Z,59.40
2018-01-30T13:55:05.203Z,59.30
2018-01-30T13:57:34.484Z,59.20
2018-01-30T14:00:03.824Z,59.40
2018-01-30T14:02:35.022Z,59.80
2018-01-30T14:05:04.292Z,59.80
2018-01-30T14:07:34.330Z,59.90
2018-01-30T14:10:03.645Z,60.80
2018-01-30T14:12:32.983Z,60.00
2018-01-30T14:15:03.116Z,59.90
2018-01-30T14:17:32.466Z,59.70
2018-01-30T14:20:02.622Z,59.50
2018-01-30T14:22:33.441Z,59.30
2018-01-30T14:25:02.755Z,59.30
2018-01-30T14:27:31.786Z,59.80
2018-01-30T14:30:01.869Z,59.30
2018-01-30T14:32:31.192Z,59.30
2018-01-30T14:35:00.877Z,59.30
2018-01-30T14:37:30.194Z,59.00
2018-01-30T14:39:59.469Z,59.10
2018-01-30T14:42:29.060Z,60.50
2018-01-30T14:44:58.354Z,60.90
2018-01-30T14:47:27.612Z,61.00
2018-01-30T14:49:56.872Z,61.20
2018-01-30T14:52:27.042Z,61.60
2018-01-30T14:54:57.154Z,62.00
2018-01-30T14:57:26.425Z,62.00
2018-01-30T14:59:55.884Z,62.30
2018-01-30T15:02:25.226Z,62.40
2018-01-30T15:04:54.916Z,62.40
2018-01-30T15:07:24.280Z,62.10
2018-01-30T15:09:54.473Z,62.20
2018-01-30T15:12:23.850Z,62.20
2018-01-30T15:14:53.138Z,62.30
2018-01-30T15:17:22.512Z,62.50
2018-01-30T15:19:52.610Z,62.90
2018-01-30T15:22:22.073Z,62.90
2018-01-30T15:24:51.388Z,63.10
2018-01-30T15:27:21.937Z,63.30
2018-01-30T15:29:51.420Z,63.80
2018-01-30T15:32:20.690Z,63.80
2018-01-30T15:34:49.993Z,64.10
2018-01-30T15:37:20.233Z,64.10
2018-01-30T15:39:49.807Z,64.60
2018-01-30T15:42:20.397Z,65.60
2018-01-30T15:44:50.473Z,65.60
2018-01-30T15:47:20.470Z,65.30
2018-01-30T15:49:50.632Z,65.70
2018-01-30T15:52:20.074Z,65.70
2018-01-30T15:54:49.601Z,65.80
2018-01-30T15:57:18.877Z,66.30
2018-01-30T15:59:48.406Z,66.60
2018-01-30T16:02:17.986Z,66.90
2018-01-30T16:04:47.354Z,67.40
2018-01-30T16:07:17.021Z,67.70
2018-01-30T16:09:46.323Z,67.90
2018-01-30T16:12:16.877Z,68.30
2018-01-30T16:14:46.515Z,68.30
2018-01-30T16:17:16.139Z,68.70
2018-01-30T16:19:45.416Z,68.90
2018-01-30T16:22:15.398Z,69.50
2018-01-30T16:24:46.005Z,70.20
2018-01-30T16:27:16.078Z,69.90
2018-01-30T16:29:45.379Z,69.80
2018-01-30T16:32:14.727Z,70.00
2018-01-30T16:34:44.868Z,70.30
2018-01-30T16:37:15.141Z,70.40
2018-01-30T16:39:44.698Z,70.40
2018-01-30T16:42:14.749Z,71.30
2018-01-30T16:44:45.125Z,71.30
2018-01-30T16:47:15.147Z,71.90
2018-01-30T16:49:46.117Z,72.40
2018-01-30T16:52:15.838Z,72.30
2018-01-30T16:54:45.143Z,72.70
2018-01-30T16:57:15.258Z,72.90
2018-01-30T16:59:44.564Z,72.90
2018-01-30T17:02:15.329Z,73.10
2018-01-30T17:04:44.734Z,73.10
2018-01-30T17:07:13.972Z,73.80
2018-01-30T17:09:43.574Z,73.60
2018-01-30T17:12:13.627Z,74.20
2018-01-30T17:14:43.026Z,74.20
2018-01-30T17:17:12.304Z,74.10
2018-01-30T17:19:42.358Z,73.90
2018-01-30T17:22:12.551Z,73.90
2018-01-30T17:24:41.993Z,73.60
2018-01-30T17:27:11.397Z,72.90
2018-01-30T17:29:40.773Z,72.40
2018-01-30T17:32:10.190Z,72.30
2018-01-30T17:34:39.561Z,72.00
2018-01-30T17:37:11.243Z,72.50
2018-01-30T17:39:41.154Z,72.40
2018-01-30T17:42:11.477Z,72.70
2018-01-30T17:44:40.749Z,72.60
2018-01-30T17:47:10.788Z,72.00
2018-01-30T17:49:40.519Z,72.00
2018-01-30T17:52:10.621Z,71.80
2018-01-30T17:54:40.177Z,71.80
2018-01-30T17:57:10.409Z,72.20
2018-01-30T17:59:39.765Z,72.10
2018-01-30T18:02:09.909Z,73.10
2018-01-30T18:04:39.382Z,72.70
2018-01-30T18:07:08.779Z,72.70
2018-01-30T18:09:38.298Z,72.70
2018-01-30T18:12:08.008Z,72.70
2018-01-30T18:14:37.434Z,72.70
2018-01-30T18:17:06.751Z,72.60
2018-01-30T18:19:36.079Z,72.60
2018-01-30T18:22:06.244Z,72.70
2018-01-30T18:24:37.185Z,72.60
2018-01-30T18:27:06.457Z,72.70
2018-01-30T18:29:35.876Z,72.80
2018-01-30T18:32:04.951Z,72.90
2018-01-30T18:34:35.160Z,72.80
2018-01-30T18:37:05.415Z,72.80
2018-01-30T18:39:34.686Z,72.70
2018-01-30T18:42:04.987Z,72.90
2018-01-30T18:44:35.164Z,72.70
2018-01-30T18:47:04.699Z,72.80
2018-01-30T18:49:33.973Z,72.70
2018-01-30T18:52:03.361Z,72.90
2018-01-30T18:54:32.678Z,72.20
2018-01-30T18:57:01.947Z,71.90
2018-01-30T18:59:32.028Z,72.00
2018-01-30T19:02:01.298Z,71.90
2018-01-30T19:04:31.026Z,72.10
2018-01-30T19:07:00.746Z,72.20
2018-01-30T19:09:31.033Z,72.20
2018-01-30T19:12:01.112Z,72.10
2018-01-30T19:14:30.448Z,72.20
2018-01-30T19:17:00.068Z,72.20
2018-01-30T19:19:29.372Z,72.40
2018-01-30T19:21:58.798Z,72.60
2018-01-30T19:24:28.446Z,72.70
2018-01-30T19:26:58.704Z,72.50
2018-01-30T19:29:28.038Z,72.50
2018-01-30T19:31:57.511Z,72.50
2018-01-30T19:34:27.121Z,73.50
2018-01-30T19:36:56.556Z,72.80
2018-01-30T19:39:26.156Z,72.70
2018-01-30T19:41:55.697Z,72.40
2018-01-30T19:44:25.355Z,72.50
2018-01-30T19:46:55.241Z,72.60
2018-01-30T19:49:24.681Z,72.80
2018-01-30T19:51:55.790Z,73.30
2018-01-30T19:54:25.239Z,73.80
2018-01-30T19:56:55.059Z,74.00
2018-01-30T19:59:24.561Z,74.30
2018-01-30T20:01:55.209Z,74.80
2018-01-30T20:04:24.770Z,74.80
2018-01-30T20:06:54.383Z,75.30
2018-01-30T20:09:23.658Z,75.70
2018-01-30T20:11:53.102Z,75.20
2018-01-30T20:14:22.461Z,75.40
2018-01-30T20:16:53.527Z,75.70
2018-01-30T20:19:22.998Z,75.70
2018-01-30T20:21:53.065Z,76.50
2018-01-30T20:24:22.372Z,76.40
2018-01-30T20:26:51.807Z,76.90
2018-01-30T20:29:21.169Z,77.20
2018-01-30T20:31:50.441Z,77.40
2018-01-30T20:34:20.099Z,77.30
2018-01-30T20:36:49.890Z,78.20
2018-01-30T20:39:19.391Z,78.60
2018-01-30T20:41:49.200Z,78.40
2018-01-30T20:44:18.571Z,78.50
2018-01-30T20:46:48.068Z,78.50
2018-01-30T20:49:18.197Z,78.60
2018-01-30T20:51:47.534Z,79.60
2018-01-30T20:54:17.034Z,79.60
2018-01-30T20:56:46.628Z,80.20
2018-01-30T20:59:16.147Z,80.20
2018-01-30T21:01:46.464Z,79.90
2018-01-30T21:04:15.923Z,79.70
2018-01-30T21:06:46.059Z,79.30
2018-01-30T21:09:16.553Z,78.50
2018-01-30T21:11:46.918Z,78.50
2018-01-30T21:14:18.404Z,78.40
2018-01-30T21:16:47.682Z,78.40
2018-01-30T21:19:18.214Z,78.50
2018-01-30T21:21:47.594Z,78.50
2018-01-30T21:24:18.000Z,78.90
2018-01-30T21:26:47.640Z,78.90
2018-01-30T21:29:18.109Z,78.50
2018-01-30T21:31:47.515Z,78.50
2018-01-30T21:34:16.981Z,78.30
2018-01-30T21:36:47.361Z,78.30
2018-01-30T21:39:17.968Z,78.30
2018-01-30T21:41:49.954Z,78.50
2018-01-30T21:44:19.476Z,78.20
2018-01-30T21:46:50.588Z,77.50
2018-01-30T21:49:20.259Z,77.50
2018-01-30T21:51:50.786Z,77.20
2018-01-30T21:54:21.867Z,77.10
2018-01-30T21:56:51.194Z,77.80
2018-01-30T21:59:20.598Z,76.80
2018-01-30T22:01:50.617Z,76.60
2018-01-30T22:04:20.335Z,76.40
2018-01-30T22:06:51.282Z,75.70
2018-01-30T22:09:21.010Z,75.80
2018-01-30T22:11:51.043Z,75.30
2018-01-30T22:14:20.576Z,75.10
2018-01-30T22:16:49.823Z,75.10
2018-01-30T22:19:19.406Z,74.80
2018-01-30T22:21:49.185Z,75.00
2018-01-30T22:24:18.835Z,74.90
2018-01-30T22:26:48.485Z,74.80
2018-01-30T22:29:18.068Z,74.70
2018-01-30T22:31:48.236Z,74.60
2018-01-30T22:34:17.669Z,74.60
2018-01-30T22:36:48.170Z,74.30
2018-01-30T22:39:17.505Z,74.30
2018-01-30T22:41:47.299Z,74.50
2018-01-30T22:44:29.864Z,74.30
2018-01-30T22:46:47.083Z,74.10
